Time;durP1;ratioP1;P1;durP2;ratioP2;P2;SDS_P1;SDS_P2;PMS_P1;PMS_P2;Temp;Humidity;BMP_temperature;BMP_pressure;BME280_temperature;BME280_humidity;BME280_pressure;Samples;Min_cycle;Max_cycle;Signal;HPM_P1;HPM_P2
2022/10/30 00:01:52;;;;;;;7.90;4.33;;;17.40;99.90;;;;;;4990591;28;20188;-68
2022/10/30 00:04:17;;;;;;;9.13;4.60;;;17.40;99.90;;;;;;4975886;28;20573;-67
2022/10/30 00:06:43;;;;;;;8.60;4.87;;;17.40;99.90;;;;;;4974198;28;20203;-67
2022/10/30 00:09:09;;;;;;;8.20;4.13;;;17.40;99.90;;;;;;4975464;28;20169;-68
2022/10/30 00:11:35;;;;;;;13.97;5.37;;;17.30;99.90;;;;;;4975642;28;20183;-68
2022/10/30 00:14:00;;;;;;;7.90;5.23;;;17.30;99.90;;;;;;4975738;28;20420;-67
2022/10/30 00:16:26;;;;;;;6.17;4.20;;;17.30;99.90;;;;;;4975631;28;20546;-68
2022/10/30 00:18:51;;;;;;;8.70;5.57;;;17.30;99.90;;;;;;4975591;28;20649;-68
2022/10/30 00:21:17;;;;;;;9.33;4.53;;;17.30;99.90;;;;;;4975586;28;20698;-68
2022/10/30 00:23:51;;;;;;;12.37;6.80;;;17.30;99.90;;;;;;4983802;28;20207;-65
2022/10/30 00:26:19;;;;;;;7.90;4.63;;;17.20;99.90;;;;;;4993742;28;20219;-68
2022/10/30 00:28:52;;;;;;;9.47;4.43;;;17.20;99.90;;;;;;4994576;28;20540;-67
2022/10/30 00:31:18;;;;;;;7.67;4.63;;;17.40;99.90;;;;;;4994902;28;20418;-68
2022/10/30 00:33:47;;;;;;;8.33;5.10;;;17.10;99.90;;;;;;4994819;28;20411;-68
2022/10/30 00:36:12;;;;;;;8.03;3.90;;;17.10;99.90;;;;;;4995099;28;20474;-66
2022/10/30 00:38:38;;;;;;;8.10;4.40;;;17.20;99.90;;;;;;4994629;28;20419;-68
2022/10/30 00:41:04;;;;;;;12.50;5.37;;;17.30;99.90;;;;;;4994885;28;20225;-68
2022/10/30 00:43:37;;;;;;;8.43;4.37;;;17.30;99.90;;;;;;4994690;28;20724;-67
2022/10/30 00:46:12;;;;;;;8.40;4.90;;;17.20;99.90;;;;;;4994576;28;20207;-67
2022/10/30 00:48:38;;;;;;;14.80;4.60;;;17.10;99.90;;;;;;4993222;28;20410;-67
2022/10/30 00:51:09;;;;;;;9.53;4.97;;;17.10;99.90;;;;;;4994715;28;20480;-68
2022/10/30 00:53:35;;;;;;;10.87;3.93;;;17.10;99.90;;;;;;4994497;28;20318;-68
2022/10/30 00:56:05;;;;;;;9.93;4.97;;;17.10;99.90;;;;;;4993957;28;20537;-67
2022/10/30 00:58:34;;;;;;;11.33;4.40;;;17.10;99.90;;;;;;4991520;28;20669;-67
2022/10/30 01:01:04;;;;;;;13.00;5.10;;;17.10;99.90;;;;;;4992306;28;20423;-68
2022/10/30 01:03:30;;;;;;;5.97;4.10;;;17.10;99.90;;;;;;4994440;28;20423;-68
2022/10/30 01:05:59;;;;;;;7.43;5.10;;;17.10;99.90;;;;;;4992830;28;20546;-67
2022/10/30 01:08:25;;;;;;;7.87;5.20;;;17.10;99.90;;;;;;4993824;28;20489;-67
2022/10/30 01:10:51;;;;;;;6.03;4.47;;;17.10;99.90;;;;;;4994125;28;20426;-67
2022/10/30 01:13:19;;;;;;;14.00;6.20;;;17.20;99.90;;;;;;4994346;28;20168;-68
2022/10/30 01:16:00;;;;;;;9.90;5.57;;;17.10;99.90;;;;;;4993966;28;20457;-68
2022/10/30 01:18:53;;;;;;;10.73;5.20;;;17.20;99.90;;;;;;4993712;28;20422;-66
2022/10/30 01:21:41;;;;;;;10.17;4.33;;;17.10;99.90;;;;;;4994173;28;20422;-68
2022/10/30 01:24:34;;;;;;;9.00;5.40;;;17.10;99.90;;;;;;4994075;28;20450;-68
2022/10/30 01:27:37;;;;;;;8.90;4.70;;;17.10;99.90;;;;;;4992345;28;20474;-68
2022/10/30 01:30:12;;;;;;;9.70;5.07;;;17.10;99.90;;;;;;4993495;28;20449;-69
2022/10/30 01:32:57;;;;;;;10.67;4.97;;;17.00;99.90;;;;;;4993717;28;20406;-66
2022/10/30 01:35:26;;;;;;;8.50;4.70;;;17.00;99.90;;;;;;4993648;28;20422;-68
2022/10/30 01:37:58;;;;;;;8.03;4.70;;;17.00;99.90;;;;;;4993606;28;20433;-68
2022/10/30 01:40:23;;;;;;;11.67;5.00;;;17.00;99.90;;;;;;4993423;28;20473;-68
2022/10/30 01:42:54;;;;;;;11.20;6.20;;;16.90;99.90;;;;;;4993568;28;20913;-67
2022/10/30 01:45:38;;;;;;;9.80;6.13;;;16.70;99.90;;;;;;4993468;28;20174;-68
2022/10/30 01:48:34;;;;;;;8.17;5.77;;;16.50;99.90;;;;;;4993542;28;20489;-67
2022/10/30 01:51:26;;;;;;;8.70;4.83;;;16.30;99.90;;;;;;4993352;28;20982;-68
2022/10/30 01:54:18;;;;;;;14.17;5.23;;;16.30;99.90;;;;;;4993431;28;20782;-67
2022/10/30 01:57:12;;;;;;;10.63;5.17;;;16.30;99.90;;;;;;4993489;28;20470;-68
2022/10/30 01:59:50;;;;;;;7.33;5.00;;;16.30;99.90;;;;;;4992120;28;21016;-68
2022/10/30 02:02:16;;;;;;;10.50;5.57;;;16.30;99.90;;;;;;4992125;28;20421;-67
2022/10/30 02:04:42;;;;;;;9.17;4.80;;;16.40;99.90;;;;;;4993338;28;20486;-67
2022/10/30 02:07:10;;;;;;;13.17;5.27;;;16.40;99.90;;;;;;4992975;28;20565;-68
2022/10/30 02:09:36;;;;;;;14.30;7.63;;;16.40;99.90;;;;;;4992807;28;20417;-68
2022/10/30 02:12:02;;;;;;;10.80;7.73;;;16.30;99.90;;;;;;4993177;28;20423;-67
2022/10/30 02:14:32;;;;;;;16.03;5.90;;;16.30;99.90;;;;;;4993071;28;20550;-68
2022/10/30 02:17:01;;;;;;;8.17;5.57;;;16.40;99.90;;;;;;4993079;28;20916;-67
2022/10/30 02:19:27;;;;;;;7.27;4.90;;;16.50;99.90;;;;;;4992668;28;20414;-67
2022/10/30 02:21:52;;;;;;;7.57;5.47;;;16.50;99.90;;;;;;4993020;28;20426;-68
2022/10/30 02:24:18;;;;;;;11.83;6.50;;;16.60;99.90;;;;;;4992857;28;20612;-67
2022/10/30 02:26:44;;;;;;;14.53;5.90;;;16.70;99.90;;;;;;4992055;28;20250;-67
2022/10/30 02:29:09;;;;;;;16.20;5.50;;;16.70;99.90;;;;;;4991857;28;20222;-67
2022/10/30 02:31:36;;;;;;;12.33;5.90;;;16.70;99.90;;;;;;4992113;28;20239;-67
2022/10/30 02:34:01;;;;;;;7.13;5.43;;;16.70;99.90;;;;;;4991882;28;20199;-67
2022/10/30 02:36:27;;;;;;;10.30;5.80;;;16.70;99.90;;;;;;4991911;28;20435;-68
2022/10/30 02:38:54;;;;;;;10.83;7.00;;;16.60;99.90;;;;;;4991720;28;20171;-67
2022/10/30 02:41:20;;;;;;;14.37;6.53;;;16.60;99.90;;;;;;4992085;28;20582;-67
2022/10/30 02:43:45;;;;;;;14.27;6.60;;;16.50;99.90;;;;;;4991975;28;20646;-67
2022/10/30 02:46:11;;;;;;;13.27;6.87;;;16.50;99.90;;;;;;4991783;28;20545;-65
2022/10/30 02:48:36;;;;;;;8.53;5.40;;;16.40;99.90;;;;;;4991501;28;20175;-65
2022/10/30 02:51:03;;;;;;;8.93;7.10;;;16.40;99.90;;;;;;4991812;28;20214;-66
2022/10/30 02:53:29;;;;;;;7.90;6.50;;;16.40;99.90;;;;;;4991803;28;20234;-66
2022/10/30 02:55:55;;;;;;;6.73;6.03;;;16.40;99.90;;;;;;4991718;28;20483;-68
2022/10/30 02:58:21;;;;;;;8.00;6.50;;;16.40;99.90;;;;;;4990449;28;20457;-66
2022/10/30 03:00:46;;;;;;;15.40;6.90;;;16.40;99.90;;;;;;4971932;28;20176;-67
2022/10/30 03:03:12;;;;;;;9.37;7.00;;;16.40;99.90;;;;;;4972130;28;20438;-67
2022/10/30 03:05:37;;;;;;;10.43;6.47;;;16.30;99.90;;;;;;4970708;28;20267;-66
2022/10/30 03:08:03;;;;;;;13.03;7.63;;;16.30;99.90;;;;;;4972140;28;20218;-65
2022/10/30 03:10:29;;;;;;;17.83;8.67;;;16.20;99.90;;;;;;4972355;28;20173;-65
2022/10/30 03:12:54;;;;;;;9.63;6.53;;;16.20;99.90;;;;;;4975550;28;20270;-65
2022/10/30 03:15:20;;;;;;;10.60;7.60;;;16.10;99.90;;;;;;4975584;28;20182;-66
2022/10/30 03:17:46;;;;;;;15.23;8.63;;;16.10;99.90;;;;;;4975518;28;20186;-65
2022/10/30 03:20:12;;;;;;;9.97;7.30;;;16.00;99.90;;;;;;4975141;28;20455;-66
2022/10/30 03:22:37;;;;;;;16.43;7.90;;;16.00;99.90;;;;;;4975506;28;20885;-65
2022/10/30 03:25:04;;;;;;;13.37;8.17;;;15.90;99.90;;;;;;4975564;28;20183;-65
2022/10/30 03:27:30;;;;;;;12.53;8.40;;;15.80;99.90;;;;;;4940436;28;1045494;-65
2022/10/30 03:29:55;;;;;;;12.10;8.10;;;15.80;99.90;;;;;;4976360;28;20211;-65
2022/10/30 03:32:21;;;;;;;10.60;8.23;;;15.70;99.90;;;;;;4976512;28;20939;-68
2022/10/30 03:34:46;;;;;;;12.57;7.73;;;15.70;99.90;;;;;;4976718;28;20186;-65
2022/10/30 03:37:12;;;;;;;15.30;8.50;;;15.60;99.90;;;;;;4976982;28;20284;-66
2022/10/30 03:39:37;;;;;;;16.93;8.97;;;15.60;99.90;;;;;;4976564;28;20263;-66
2022/10/30 03:42:03;;;;;;;10.50;8.47;;;15.50;99.90;;;;;;4976584;28;20204;-66
2022/10/30 03:44:28;;;;;;;18.87;8.77;;;15.50;99.90;;;;;;4976469;28;20682;-65
2022/10/30 03:46:54;;;;;;;12.30;7.30;;;15.40;99.90;;;;;;4976071;28;20204;-67
2022/10/30 03:49:19;;;;;;;10.37;7.90;;;15.40;99.90;;;;;;4976134;28;20187;-67
2022/10/30 03:51:45;;;;;;;12.00;7.70;;;15.30;99.90;;;;;;4976233;28;20191;-65
2022/10/30 03:54:10;;;;;;;13.10;8.07;;;15.30;99.90;;;;;;4976177;28;20238;-67
2022/10/30 03:56:36;;;;;;;23.00;9.50;;;15.30;99.90;;;;;;4976045;28;20694;-67
2022/10/30 03:59:01;;;;;;;14.80;8.37;;;15.30;99.90;;;;;;4975726;28;20184;-67
2022/10/30 04:01:27;;;;;;;10.53;7.27;;;15.30;99.90;;;;;;4975609;28;20176;-68
2022/10/30 04:03:52;;;;;;;9.90;7.60;;;15.20;99.90;;;;;;4975566;28;20227;-67
2022/10/30 04:06:18;;;;;;;12.23;8.10;;;15.10;99.90;;;;;;4974682;28;20299;-65
2022/10/30 04:08:43;;;;;;;12.27;7.83;;;15.10;99.90;;;;;;4975621;28;20176;-65
2022/10/30 04:11:10;;;;;;;10.10;7.80;;;15.20;99.90;;;;;;4975886;28;20172;-66
2022/10/30 04:13:35;;;;;;;16.37;7.57;;;15.10;99.90;;;;;;4975853;28;20300;-65
2022/10/30 04:16:01;;;;;;;11.73;8.07;;;15.10;99.90;;;;;;4975698;28;20472;-67
2022/10/30 04:18:27;;;;;;;14.07;7.80;;;15.10;99.90;;;;;;4975479;28;20208;-67
2022/10/30 04:20:53;;;;;;;12.27;7.63;;;15.00;99.90;;;;;;4975693;28;20176;-65
2022/10/30 04:23:20;;;;;;;12.40;8.90;;;15.00;99.90;;;;;;4975567;28;20438;-65
2022/10/30 04:25:46;;;;;;;11.07;6.60;;;14.90;99.90;;;;;;4975516;28;20530;-65
2022/10/30 04:28:11;;;;;;;10.27;7.77;;;14.90;99.90;;;;;;4975434;28;20416;-65
2022/10/30 04:30:38;;;;;;;16.80;7.57;;;14.90;99.90;;;;;;4975460;28;20172;-66
2022/10/30 04:33:05;;;;;;;18.30;8.13;;;14.90;99.90;;;;;;4975462;28;20164;-65
2022/10/30 04:35:33;;;;;;;18.23;8.57;;;14.90;99.90;;;;;;4975413;28;20940;-66
2022/10/30 04:38:01;;;;;;;13.30;7.80;;;14.90;99.90;;;;;;4975563;28;20411;-65
2022/10/30 04:40:31;;;;;;;10.87;7.17;;;14.90;99.90;;;;;;4975148;28;20422;-66
2022/10/30 04:42:58;;;;;;;13.40;7.87;;;14.90;99.90;;;;;;4975384;28;20970;-66
2022/10/30 04:45:23;;;;;;;10.90;8.13;;;14.90;99.90;;;;;;4975165;28;20494;-66
2022/10/30 04:47:49;;;;;;;13.50;8.27;;;14.80;99.90;;;;;;4975128;28;20483;-65
2022/10/30 04:50:15;;;;;;;11.53;8.07;;;14.80;99.90;;;;;;4974883;28;20181;-66
2022/10/30 04:52:40;;;;;;;15.07;8.47;;;14.70;99.90;;;;;;4975133;28;20230;-68
2022/10/30 04:55:08;;;;;;;15.13;8.10;;;14.60;99.90;;;;;;4975180;28;20204;-68
2022/10/30 04:57:35;;;;;;;11.03;7.20;;;14.60;99.90;;;;;;4974917;28;20657;-67
2022/10/30 05:00:02;;;;;;;16.33;9.10;;;14.50;99.90;;;;;;4974686;28;20416;-67
2022/10/30 05:02:28;;;;;;;15.30;8.57;;;14.50;99.90;;;;;;4974885;28;20482;-68
2022/10/30 05:04:54;;;;;;;10.57;8.07;;;14.40;99.90;;;;;;4974950;28;20941;-68
2022/10/30 05:07:19;;;;;;;11.63;8.80;;;14.40;99.90;;;;;;4974773;28;20247;-67
2022/10/30 05:09:45;;;;;;;16.77;8.47;;;14.30;99.90;;;;;;4974551;28;20182;-67
2022/10/30 05:12:10;;;;;;;10.67;8.43;;;14.30;99.90;;;;;;4974910;28;20263;-65
2022/10/30 05:14:37;;;;;;;15.40;8.60;;;14.30;99.90;;;;;;4974736;28;20176;-65
2022/10/30 05:17:02;;;;;;;14.73;9.27;;;14.30;99.90;;;;;;4974666;28;20243;-67
2022/10/30 05:19:28;;;;;;;15.83;8.57;;;14.30;99.90;;;;;;4974322;28;20934;-68
2022/10/30 05:21:53;;;;;;;14.87;8.80;;;14.30;99.90;;;;;;4974541;28;20180;-67
2022/10/30 05:24:19;;;;;;;9.97;8.27;;;14.20;99.90;;;;;;4974489;28;20180;-67
2022/10/30 05:26:45;;;;;;;11.83;9.00;;;14.20;99.90;;;;;;4974779;28;20212;-66
2022/10/30 05:29:11;;;;;;;14.13;9.47;;;14.20;99.90;;;;;;4974174;28;20180;-66
2022/10/30 05:31:36;;;;;;;12.73;7.70;;;14.20;99.90;;;;;;4974557;28;20424;-67
2022/10/30 05:34:02;;;;;;;15.63;9.40;;;14.10;99.90;;;;;;4973803;28;20922;-66
2022/10/30 05:36:27;;;;;;;13.23;8.20;;;14.10;99.90;;;;;;4974185;28;20192;-67
2022/10/30 05:38:53;;;;;;;11.57;8.07;;;14.10;99.90;;;;;;4973959;28;20267;-67
2022/10/30 05:41:18;;;;;;;11.87;8.37;;;14.10;99.90;;;;;;4974205;28;20168;-67
2022/10/30 05:43:44;;;;;;;15.00;8.70;;;14.00;99.90;;;;;;4974146;28;20202;-67
2022/10/30 05:46:09;;;;;;;9.70;8.57;;;14.00;99.90;;;;;;4974215;28;20271;-67
2022/10/30 05:48:35;;;;;;;16.97;8.97;;;14.00;99.90;;;;;;4973967;28;20712;-67
2022/10/30 05:51:01;;;;;;;13.87;8.80;;;13.90;99.90;;;;;;4974089;28;20177;-67
2022/10/30 05:53:26;;;;;;;13.27;8.90;;;14.00;99.90;;;;;;4974018;28;20634;-66
2022/10/30 05:55:56;;;;;;;12.17;8.40;;;14.00;99.90;;;;;;4973854;28;20447;-67
2022/10/30 05:58:22;;;;;;;18.83;9.90;;;14.00;99.90;;;;;;4973606;28;20590;-67
2022/10/30 06:00:48;;;;;;;11.43;8.30;;;14.00;99.90;;;;;;4973843;28;20514;-67
2022/10/30 06:03:13;;;;;;;10.23;8.07;;;14.00;99.90;;;;;;4973843;28;20199;-67
2022/10/30 06:05:39;;;;;;;17.23;9.30;;;13.90;99.90;;;;;;4973708;28;20673;-67
2022/10/30 06:08:06;;;;;;;18.43;12.03;;;13.90;99.90;;;;;;4973781;28;20172;-67
2022/10/30 06:10:32;;;;;;;13.00;9.67;;;13.90;99.90;;;;;;4973564;28;20247;-67
2022/10/30 06:13:00;;;;;;;13.50;7.53;;;13.90;99.90;;;;;;4973607;28;20803;-67
2022/10/30 06:15:26;;;;;;;12.93;8.60;;;13.80;99.90;;;;;;4973515;28;20514;-67
2022/10/30 06:17:52;;;;;;;13.13;8.93;;;13.80;99.90;;;;;;4973635;28;20459;-67
2022/10/30 06:20:19;;;;;;;11.00;7.23;;;13.80;99.90;;;;;;4988185;28;20450;-67
2022/10/30 06:23:05;;;;;;;8.83;7.93;;;13.80;99.90;;;;;;4973578;28;20499;-67
2022/10/30 06:25:33;;;;;;;12.60;10.07;;;13.90;99.90;;;;;;4973384;28;20404;-67
2022/10/30 06:27:59;;;;;;;11.00;8.60;;;13.90;99.90;;;;;;4973446;28;20454;-67
2022/10/30 06:30:25;;;;;;;12.23;8.10;;;13.90;99.90;;;;;;4973140;28;20933;-67
2022/10/30 06:32:57;;;;;;;22.07;8.50;;;13.90;99.90;;;;;;4973552;28;20188;-67
2022/10/30 06:35:23;;;;;;;11.20;7.73;;;13.90;99.90;;;;;;4973340;28;20933;-67
2022/10/30 06:37:48;;;;;;;12.73;6.50;;;14.00;99.90;;;;;;4973298;28;20466;-67
2022/10/30 06:40:15;;;;;;;14.90;8.00;;;13.90;99.90;;;;;;4973117;28;20203;-67
2022/10/30 06:42:44;;;;;;;11.80;6.97;;;14.10;99.90;;;;;;4973449;28;20545;-67
2022/10/30 06:45:11;;;;;;;13.30;8.57;;;14.20;99.90;;;;;;4972452;28;20416;-67
2022/10/30 06:47:37;;;;;;;11.90;7.20;;;14.30;99.90;;;;;;4973183;28;20447;-67
2022/10/30 06:50:08;;;;;;;12.97;6.83;;;14.40;99.90;;;;;;4972979;28;20512;-67
2022/10/30 06:52:34;;;;;;;16.13;6.10;;;14.70;99.90;;;;;;4973222;28;20435;-67
2022/10/30 06:54:59;;;;;;;11.70;6.80;;;14.80;99.90;;;;;;4973206;28;20901;-67
2022/10/30 06:57:25;;;;;;;8.57;6.83;;;15.00;99.90;;;;;;4971855;28;20862;-67
2022/10/30 06:59:51;;;;;;;6.80;6.10;;;15.30;99.90;;;;;;4972760;28;20172;-67
2022/10/30 07:02:16;;;;;;;11.17;7.50;;;15.50;99.90;;;;;;4973127;28;20207;-67
2022/10/30 07:04:44;;;;;;;11.40;8.80;;;15.60;99.90;;;;;;4973085;28;20443;-65
2022/10/30 07:07:10;;;;;;;7.70;5.10;;;15.80;99.90;;;;;;4973013;28;20220;-67
2022/10/30 07:09:35;;;;;;;9.27;6.87;;;16.00;99.90;;;;;;4973024;28;20447;-67
2022/10/30 07:12:01;;;;;;;12.00;8.80;;;16.10;99.90;;;;;;4973040;28;20176;-67
2022/10/30 07:14:26;;;;;;;10.07;6.40;;;16.20;99.90;;;;;;4973055;28;20180;-67
2022/10/30 07:16:54;;;;;;;10.33;6.50;;;16.10;99.90;;;;;;4972908;28;20227;-67
2022/10/30 07:19:20;;;;;;;10.60;6.33;;;16.30;99.90;;;;;;4972694;28;20168;-67
2022/10/30 07:21:45;;;;;;;15.00;11.07;;;16.40;99.90;;;;;;4972919;28;20964;-68
2022/10/30 07:24:11;;;;;;;17.70;7.33;;;16.20;99.90;;;;;;4973097;28;20173;-67
2022/10/30 07:26:37;;;;;;;7.97;7.07;;;16.00;99.90;;;;;;4972867;28;20702;-67
2022/10/30 07:29:03;;;;;;;11.83;6.80;;;16.00;99.90;;;;;;4972577;28;20172;-65
2022/10/30 07:31:28;;;;;;;12.60;5.93;;;16.00;99.90;;;;;;4972811;28;20898;-67
2022/10/30 07:33:54;;;;;;;9.80;6.60;;;16.10;99.90;;;;;;4972770;28;20510;-67
2022/10/30 07:36:19;;;;;;;11.13;6.47;;;16.10;99.90;;;;;;4972683;28;20555;-66
2022/10/30 07:38:47;;;;;;;7.57;5.67;;;16.20;99.90;;;;;;4972550;28;20172;-66
2022/10/30 07:41:13;;;;;;;12.63;6.07;;;16.20;99.90;;;;;;4972901;28;20173;-66
2022/10/30 07:43:38;;;;;;;11.53;7.67;;;16.50;99.90;;;;;;4972716;28;20503;-66
2022/10/30 07:46:04;;;;;;;6.87;5.47;;;16.80;99.90;;;;;;4972716;28;20572;-66
2022/10/30 07:48:29;;;;;;;6.87;5.27;;;17.20;99.90;;;;;;4972396;28;20176;-66
2022/10/30 07:50:55;;;;;;;9.73;5.73;;;17.80;99.90;;;;;;4972655;28;20191;-67
2022/10/30 07:53:20;;;;;;;9.90;5.67;;;18.60;99.90;;;;;;4972732;28;20172;-66
2022/10/30 07:55:46;;;;;;;9.80;5.30;;;19.20;99.90;;;;;;4972676;28;20227;-66
2022/10/30 07:58:11;;;;;;;12.33;7.67;;;19.80;99.90;;;;;;4975289;28;20219;-67
2022/10/30 08:00:37;;;;;;;10.20;6.23;;;20.50;99.90;;;;;;4976059;28;20176;-67
2022/10/30 08:03:03;;;;;;;12.70;6.30;;;21.30;99.90;;;;;;4976092;28;20172;-68
2022/10/30 08:05:28;;;;;;;7.57;5.50;;;22.30;99.90;;;;;;4975820;28;20176;-66
2022/10/30 08:07:54;;;;;;;11.50;5.53;;;23.10;99.90;;;;;;4976105;28;20419;-66
2022/10/30 08:10:19;;;;;;;9.17;5.90;;;22.70;99.90;;;;;;4975730;28;20200;-66
2022/10/30 08:12:47;;;;;;;6.67;5.17;;;23.30;99.90;;;;;;4975911;28;20534;-66
2022/10/30 08:15:13;;;;;;;5.57;5.03;;;24.20;99.90;;;;;;4975846;28;20167;-66
2022/10/30 08:17:43;;;;;;;10.83;5.57;;;24.90;99.20;;;;;;4975659;28;20968;-66
2022/10/30 08:20:10;;;;;;;6.00;4.37;;;25.70;97.10;;;;;;4974893;28;20921;-66
2022/10/30 08:22:46;;;;;;;9.27;5.30;;;26.50;94.50;;;;;;4975678;28;21004;-66
2022/10/30 08:25:12;;;;;;;10.13;5.27;;;26.50;92.80;;;;;;4975646;28;20482;-66
2022/10/30 08:27:37;;;;;;;6.10;4.90;;;27.20;91.70;;;;;;4974266;28;20451;-66
2022/10/30 08:30:03;;;;;;;7.83;5.33;;;27.60;90.60;;;;;;4975279;28;20532;-66
2022/10/30 08:32:29;;;;;;;9.50;5.40;;;28.00;87.20;;;;;;4975430;28;20638;-66
2022/10/30 08:34:54;;;;;;;9.30;6.07;;;28.80;85.00;;;;;;4974250;28;20215;-66
2022/10/30 08:37:20;;;;;;;11.93;5.90;;;29.70;80.00;;;;;;4975329;28;20581;-66
2022/10/30 08:39:45;;;;;;;9.07;5.30;;;29.90;77.20;;;;;;4973874;28;20164;-66
2022/10/30 08:42:11;;;;;;;9.77;5.70;;;30.40;74.60;;;;;;4975322;28;20177;-66
2022/10/30 08:44:36;;;;;;;10.80;5.70;;;30.90;72.60;;;;;;4975193;28;20179;-66
2022/10/30 08:47:02;;;;;;;8.83;5.70;;;30.80;70.60;;;;;;4975188;28;20203;-66
2022/10/30 08:49:27;;;;;;;7.80;5.50;;;31.00;69.10;;;;;;4975133;28;20204;-66
2022/10/30 08:51:53;;;;;;;9.77;5.87;;;31.60;67.30;;;;;;4975159;28;20176;-66
2022/10/30 08:54:18;;;;;;;6.53;5.63;;;31.90;64.60;;;;;;4975077;28;20172;-67
2022/10/30 08:56:44;;;;;;;7.83;5.60;;;32.20;62.20;;;;;;4974961;28;20608;-67
2022/10/30 08:59:09;;;;;;;8.07;5.63;;;32.40;62.20;;;;;;4974653;28;20179;-66
2022/10/30 09:01:35;;;;;;;6.57;5.73;;;32.80;60.50;;;;;;4974922;28;20180;-67
2022/10/30 09:04:01;;;;;;;8.23;5.40;;;33.20;59.10;;;;;;4975061;28;20176;-67
2022/10/30 09:06:26;;;;;;;12.23;6.50;;;33.60;57.70;;;;;;4974821;28;20808;-66
2022/10/30 09:08:52;;;;;;;8.93;6.53;;;34.00;56.60;;;;;;4973623;28;20176;-67
2022/10/30 09:11:17;;;;;;;14.60;6.87;;;34.40;55.10;;;;;;4974725;28;20172;-67
2022/10/30 09:13:43;;;;;;;9.30;5.67;;;34.50;54.60;;;;;;4974706;28;20176;-66
2022/10/30 09:16:08;;;;;;;8.40;6.27;;;34.80;54.20;;;;;;4973256;28;20200;-67
2022/10/30 09:18:34;;;;;;;14.23;6.07;;;35.00;53.20;;;;;;4974565;28;20181;-67
2022/10/30 09:21:00;;;;;;;7.83;6.00;;;34.60;53.40;;;;;;4974602;28;20176;-66
2022/10/30 09:23:25;;;;;;;11.70;5.93;;;34.40;53.00;;;;;;4974610;28;20168;-66
2022/10/30 09:25:51;;;;;;;10.50;6.23;;;34.60;52.80;;;;;;4974245;28;20208;-67
2022/10/30 09:28:17;;;;;;;9.33;5.93;;;34.50;52.70;;;;;;4974156;28;20176;-67
2022/10/30 09:30:42;;;;;;;9.07;5.83;;;34.60;52.70;;;;;;4974428;28;20416;-67
2022/10/30 09:33:08;;;;;;;7.70;6.03;;;34.70;52.10;;;;;;4974388;28;20634;-67
2022/10/30 09:35:35;;;;;;;6.83;6.23;;;34.60;52.50;;;;;;4974215;28;20674;-66
2022/10/30 09:38:01;;;;;;;8.70;6.40;;;35.10;51.70;;;;;;4974346;28;20183;-67
2022/10/30 09:40:45;;;;;;;7.90;6.03;;;35.50;50.90;;;;;;4974025;28;20428;-66
2022/10/30 09:43:41;;;;;;;8.60;6.50;;;35.70;50.50;;;;;;4974214;28;20183;-66
2022/10/30 09:46:19;;;;;;;8.40;6.30;;;36.00;49.80;;;;;;4964742;28;20474;-66
2022/10/30 09:49:04;;;;;;;6.97;4.90;;;36.60;49.30;;;;;;4973894;28;20516;-67
2022/10/30 09:51:35;;;;;;;12.53;5.97;;;35.40;49.70;;;;;;4974085;28;20424;-67
2022/10/30 09:54:35;;;;;;;8.60;5.63;;;34.30;49.60;;;;;;4974300;28;20424;-66
2022/10/30 09:57:24;;;;;;;11.30;6.20;;;34.30;50.80;;;;;;4973941;28;20451;-67
2022/10/30 09:59:58;;;;;;;7.50;5.20;;;34.40;50.30;;;;;;4973678;28;20434;-67
2022/10/30 10:02:38;;;;;;;5.30;4.90;;;35.90;48.80;;;;;;4973940;28;20431;-66
2022/10/30 10:05:20;;;;;;;8.70;5.13;;;37.40;49.60;;;;;;4974108;28;20858;-66
2022/10/30 10:07:59;;;;;;;8.70;5.83;;;38.70;45.90;;;;;;4973728;28;20458;-66
2022/10/30 10:10:42;;;;;;;9.80;5.83;;;39.00;45.00;;;;;;4973436;28;20431;-67
2022/10/30 10:13:22;;;;;;;8.07;5.40;;;38.90;43.90;;;;;;4973749;28;20416;-66
2022/10/30 10:15:53;;;;;;;6.70;5.60;;;37.70;44.50;;;;;;4973566;28;20449;-67
2022/10/30 10:18:28;;;;;;;8.00;5.50;;;36.60;45.20;;;;;;4973345;28;20945;-66
2022/10/30 10:20:59;;;;;;;8.60;6.60;;;38.20;44.50;;;;;;4973352;28;20415;-67
2022/10/30 10:23:47;;;;;;;6.13;4.80;;;39.10;43.60;;;;;;4973538;28;20486;-67
2022/10/30 10:26:25;;;;;;;6.87;5.73;;;39.90;42.20;;;;;;4973244;28;20533;-67
2022/10/30 10:28:59;;;;;;;8.63;5.90;;;39.90;41.30;;;;;;4980908;28;20974;-67
2022/10/30 10:31:59;;;;;;;6.40;5.63;;;40.10;40.90;;;;;;4983330;28;20422;-67
2022/10/30 10:34:39;;;;;;;7.80;5.63;;;40.00;40.50;;;;;;4981101;28;20795;-67
2022/10/30 10:37:44;;;;;;;7.13;4.50;;;40.10;40.70;;;;;;4992702;28;20438;-67
2022/10/30 10:40:44;;;;;;;12.27;4.90;;;40.40;40.40;;;;;;4975339;28;20467;-64
2022/10/30 10:43:28;;;;;;;5.37;4.23;;;41.00;39.50;;;;;;4973271;28;20478;-64
2022/10/30 10:46:12;;;;;;;6.00;4.80;;;41.80;38.50;;;;;;4973004;28;20438;-67
2022/10/30 10:49:13;;;;;;;7.80;5.90;;;42.30;37.80;;;;;;4973070;28;20422;-63
2022/10/30 10:51:48;;;;;;;6.50;5.20;;;42.00;37.50;;;;;;4973159;28;20411;-63
2022/10/30 10:54:20;;;;;;;12.13;5.20;;;42.60;37.30;;;;;;4973124;28;20438;-65
2022/10/30 10:56:48;;;;;;;5.70;5.10;;;43.20;36.40;;;;;;4973025;28;20455;-64
2022/10/30 10:59:34;;;;;;;8.73;5.73;;;43.70;36.10;;;;;;4972938;28;20428;-65
2022/10/30 11:02:21;;;;;;;8.30;5.63;;;43.40;35.60;;;;;;4969104;28;20435;-65
2022/10/30 11:04:51;;;;;;;5.70;5.03;;;43.90;34.70;;;;;;4981714;28;20513;-67
2022/10/30 11:07:23;;;;;;;6.60;4.07;;;43.80;34.30;;;;;;4992264;28;20474;-65
2022/10/30 11:09:54;;;;;;;6.33;5.00;;;43.70;33.90;;;;;;4992049;28;20450;-66
2022/10/30 11:12:28;;;;;;;9.30;5.20;;;43.10;34.20;;;;;;4992347;28;20422;-67
2022/10/30 11:14:54;;;;;;;8.20;6.97;;;43.60;33.90;;;;;;4992191;28;20415;-64
2022/10/30 11:17:37;;;;;;;7.57;4.90;;;43.70;33.90;;;;;;4992154;28;20449;-66
2022/10/30 11:20:17;;;;;;;9.27;6.03;;;43.10;33.50;;;;;;4991438;28;20429;-65
2022/10/30 11:22:49;;;;;;;10.40;5.17;;;40.60;35.70;;;;;;4992201;28;20423;-67
2022/10/30 11:25:23;;;;;;;8.30;5.43;;;41.60;35.40;;;;;;4992114;28;20912;-67
2022/10/30 11:27:54;;;;;;;6.80;5.30;;;41.20;34.70;;;;;;4992661;28;20520;-68
2022/10/30 11:30:23;;;;;;;5.80;4.37;;;39.60;36.30;;;;;;4992090;28;20414;-68
2022/10/30 11:32:49;;;;;;;8.93;4.60;;;39.90;36.80;;;;;;4994878;28;20419;-67
2022/10/30 11:35:17;;;;;;;8.30;4.90;;;40.40;36.20;;;;;;4995832;28;20430;-68
2022/10/30 11:37:46;;;;;;;6.93;5.00;;;41.00;35.90;;;;;;4995749;28;20171;-67
2022/10/30 11:40:12;;;;;;;9.17;5.50;;;40.90;35.40;;;;;;4985530;28;20511;-67
2022/10/30 11:42:40;;;;;;;10.83;9.70;;;40.30;36.10;;;;;;4983811;28;20520;-68
2022/10/30 11:45:17;;;;;;;16.87;14.30;;;40.40;36.20;;;;;;4995639;28;20175;-67
2022/10/30 11:47:43;;;;;;;5.87;5.30;;;38.50;37.50;;;;;;4995350;28;20458;-66
2022/10/30 11:50:17;;;;;;;7.43;5.30;;;38.80;37.70;;;;;;4992504;28;20503;-65
2022/10/30 11:52:43;;;;;;;7.27;6.20;;;38.30;38.30;;;;;;4995775;28;20458;-65
2022/10/30 11:55:16;;;;;;;10.63;9.33;;;37.60;39.20;;;;;;4995661;28;20465;-64
2022/10/30 11:57:51;;;;;;;9.23;6.90;;;35.80;40.70;;;;;;4995687;28;20510;-67
2022/10/30 12:00:19;;;;;;;7.07;5.57;;;35.00;41.40;;;;;;4996039;28;20950;-70
2022/10/30 12:02:50;;;;;;;12.10;5.57;;;33.40;42.90;;;;;;4994927;28;20426;-71
2022/10/30 12:05:24;;;;;;;8.73;5.40;;;32.90;44.00;;;;;;4995525;28;20422;-72
2022/10/30 12:07:50;;;;;;;10.17;7.20;;;32.50;45.20;;;;;;4994680;28;20465;-72
2022/10/30 12:10:27;;;;;;;19.50;6.70;;;31.60;46.60;;;;;;4995129;28;20835;-71
2022/10/30 12:12:52;;;;;;;40.27;9.83;;;31.30;46.70;;;;;;4995378;28;20410;-71
2022/10/30 12:15:24;;;;;;;16.47;6.87;;;31.20;47.50;;;;;;4995362;28;20972;-72
2022/10/30 12:17:59;;;;;;;14.73;7.47;;;31.60;47.40;;;;;;5010258;28;20172;-72
2022/10/30 12:20:25;;;;;;;8.80;5.97;;;31.90;47.30;;;;;;4994994;28;20915;-72
2022/10/30 12:22:51;;;;;;;8.30;5.87;;;32.10;47.00;;;;;;4995112;28;20800;-72
2022/10/30 12:25:31;;;;;;;12.13;5.97;;;33.00;46.10;;;;;;4994924;28;20789;-69
2022/10/30 12:28:04;;;;;;;7.73;5.70;;;33.70;45.50;;;;;;4994993;28;20674;-71
2022/10/30 12:30:35;;;;;;;17.33;10.30;;;33.80;45.50;;;;;;4995261;28;20800;-68
2022/10/30 12:33:11;;;;;;;13.40;7.57;;;33.70;45.50;;;;;;4995096;28;20411;-66
2022/10/30 12:35:58;;;;;;;8.90;6.77;;;32.70;46.00;;;;;;4994640;28;21206;-67
2022/10/30 12:38:35;;;;;;;7.13;5.57;;;32.60;46.60;;;;;;4994745;28;20489;-67
2022/10/30 12:41:22;;;;;;;18.17;6.80;;;32.40;47.50;;;;;;4994862;28;20450;-67
2022/10/30 12:44:08;;;;;;;14.13;6.27;;;33.00;47.50;;;;;;4994656;28;20988;-67
2022/10/30 12:46:49;;;;;;;11.40;6.10;;;33.00;47.50;;;;;;4994630;28;20517;-65
2022/10/30 12:49:39;;;;;;;7.50;6.30;;;32.70;47.70;;;;;;4994493;28;20473;-66
2022/10/30 12:52:20;;;;;;;11.20;5.53;;;33.10;47.90;;;;;;4994678;28;20415;-67
2022/10/30 12:55:22;;;;;;;10.30;5.00;;;32.80;47.30;;;;;;4994573;28;20924;-66